createdAt,value
2023-01-09T00:00:47.947Z,4.10
2023-01-09T00:03:14.664Z,3.53
2023-01-09T00:05:41.371Z,3.25
2023-01-09T00:10:34.781Z,3.30
2023-01-09T00:15:28.255Z,2.35
2023-01-09T00:17:54.961Z,2.72
2023-01-09T00:22:48.308Z,1.95
2023-01-09T00:27:41.687Z,1.88
2023-01-09T00:30:09.759Z,1.88
2023-01-09T00:32:36.401Z,1.88
2023-01-09T00:35:03.316Z,2.00
2023-01-09T00:37:30.001Z,1.55
2023-01-09T00:42:27.772Z,1.88
2023-01-09T00:44:59.532Z,1.40
2023-01-09T00:47:48.519Z,1.20
2023-01-09T00:50:19.811Z,1.83
2023-01-09T00:52:47.903Z,0.95
2023-01-09T00:55:15.390Z,1.13
2023-01-09T00:57:42.398Z,1.20
2023-01-09T01:00:10.051Z,1.08
2023-01-09T01:02:36.824Z,0.80
2023-01-09T01:07:48.939Z,1.13
2023-01-09T01:10:22.145Z,1.05
2023-01-09T01:12:49.975Z,0.95
2023-01-09T01:15:18.065Z,0.82
2023-01-09T01:17:45.329Z,0.80
2023-01-09T01:20:15.559Z,0.85
2023-01-09T01:22:42.645Z,0.80
2023-01-09T01:25:11.571Z,0.98
2023-01-09T01:27:38.440Z,1.00
2023-01-09T01:32:32.793Z,0.52
2023-01-09T01:34:59.538Z,0.77
2023-01-09T01:39:54.779Z,1.00
2023-01-09T01:42:21.875Z,0.82
2023-01-09T01:45:12.747Z,0.80
2023-01-09T01:48:05.151Z,0.80
2023-01-09T01:50:43.915Z,0.82
2023-01-09T01:53:27.341Z,0.77
2023-01-09T01:56:10.599Z,0.60
2023-01-09T01:58:51.753Z,0.73
2023-01-09T02:01:19.434Z,0.70
2023-01-09T02:03:46.678Z,0.50
2023-01-09T02:06:14.016Z,0.73
2023-01-09T02:08:40.919Z,0.70
2023-01-09T02:11:07.666Z,0.60
2023-01-09T02:16:35.703Z,0.50
2023-01-09T02:19:37.763Z,0.40
2023-01-09T02:22:28.375Z,0.60
2023-01-09T02:25:31.516Z,0.68
2023-01-09T02:28:04.443Z,0.40
2023-01-09T02:30:36.962Z,0.47
2023-01-09T02:33:32.438Z,0.30
2023-01-09T02:36:28.819Z,0.50
2023-01-09T02:39:14.249Z,0.40
2023-01-09T02:41:55.248Z,0.40
2023-01-09T02:44:30.524Z,0.22
2023-01-09T02:47:29.141Z,0.40
2023-01-09T02:50:03.506Z,0.50
2023-01-09T02:52:36.029Z,0.47
2023-01-09T02:55:02.653Z,0.80
2023-01-09T02:57:50.636Z,0.55
2023-01-09T03:00:36.236Z,0.50
2023-01-09T03:03:27.430Z,0.40
2023-01-09T03:06:12.720Z,0.32
2023-01-09T03:08:43.177Z,0.38
2023-01-09T03:11:11.793Z,0.35
2023-01-09T03:13:50.451Z,0.40
2023-01-09T03:16:37.456Z,0.30
2023-01-09T03:19:15.617Z,0.30
2023-01-09T03:21:44.752Z,0.30
2023-01-09T03:24:11.483Z,0.20
2023-01-09T03:26:38.354Z,0.50
2023-01-09T03:29:05.281Z,0.20
2023-01-09T03:31:32.200Z,0.20
2023-01-09T03:33:58.945Z,0.20
2023-01-09T03:38:52.471Z,0.10
2023-01-09T03:43:48.440Z,0.20
2023-01-09T03:46:16.716Z,0.20
2023-01-09T03:48:43.743Z,0.20
2023-01-09T03:51:10.687Z,0.10
2023-01-09T03:53:37.682Z,0.17
2023-01-09T03:56:04.471Z,0.20
2023-01-09T04:01:00.515Z,0.10
2023-01-09T04:03:27.351Z,0.20
2023-01-09T04:05:54.208Z,0.13
2023-01-09T04:10:49.730Z,0.10
2023-01-09T04:13:17.125Z,0.10
2023-01-09T04:15:44.103Z,0.30
2023-01-09T04:18:11.053Z,0.20
2023-01-09T04:20:37.943Z,0.20
2023-01-09T04:25:31.451Z,0.73
2023-01-09T04:30:24.878Z,1.05
2023-01-09T04:35:19.884Z,0.90
2023-01-09T04:37:46.651Z,0.70
2023-01-09T04:40:13.993Z,0.28
2023-01-09T04:42:41.808Z,0.60
2023-01-09T04:45:10.886Z,0.30
2023-01-09T04:47:37.699Z,0.40
2023-01-09T04:50:04.844Z,0.20
2023-01-09T04:52:31.491Z,0.20
2023-01-09T04:54:58.287Z,0.30
2023-01-09T04:59:52.273Z,0.30
2023-01-09T05:02:19.533Z,0.20
2023-01-09T05:07:12.815Z,0.30
2023-01-09T05:12:06.613Z,0.30
2023-01-09T05:14:33.330Z,0.32
2023-01-09T05:19:26.687Z,0.20
2023-01-09T05:21:53.389Z,0.40
2023-01-09T05:26:46.609Z,0.20
2023-01-09T05:29:13.285Z,0.30
2023-01-09T05:31:40.020Z,0.22
2023-01-09T05:36:33.358Z,0.20
2023-01-09T05:41:26.955Z,0.30
2023-01-09T05:43:53.682Z,0.25
2023-01-09T05:48:47.026Z,0.30
2023-01-09T05:53:40.520Z,0.30
2023-01-09T05:58:34.082Z,0.15
2023-01-09T06:03:27.508Z,0.50
2023-01-09T06:08:20.789Z,0.20
2023-01-09T06:10:48.011Z,0.20
2023-01-09T06:13:14.767Z,0.28
2023-01-09T06:18:08.541Z,0.30
2023-01-09T06:23:02.107Z,0.50
2023-01-09T06:25:28.826Z,0.30
2023-01-09T06:27:55.453Z,0.30
2023-01-09T06:32:49.532Z,0.30
2023-01-09T06:35:20.294Z,0.60
2023-01-09T06:37:50.199Z,0.38
2023-01-09T06:40:18.144Z,0.38
2023-01-09T06:42:46.340Z,0.57
2023-01-09T06:45:15.325Z,0.55
2023-01-09T06:47:42.101Z,0.55
2023-01-09T06:50:09.555Z,0.40
2023-01-09T06:52:39.615Z,0.50
2023-01-09T06:55:07.559Z,0.50
2023-01-09T06:57:34.421Z,0.50
2023-01-09T07:00:01.169Z,0.60
2023-01-09T07:04:54.903Z,0.43
2023-01-09T07:07:22.396Z,0.63
2023-01-09T07:09:49.340Z,0.73
2023-01-09T07:12:16.102Z,0.50
2023-01-09T07:17:12.360Z,0.82
2023-01-09T07:19:39.083Z,1.95
2023-01-09T07:24:32.358Z,0.50
2023-01-09T07:26:59.121Z,0.65
2023-01-09T20:30:54.536Z,1.70
2023-01-09T20:33:21.958Z,1.20
2023-01-09T20:35:48.709Z,1.00
2023-01-09T20:40:44.819Z,0.88
2023-01-09T20:43:12.680Z,0.73
2023-01-09T20:45:40.821Z,0.85
2023-01-09T20:48:10.836Z,0.90
2023-01-09T20:50:38.294Z,0.98
2023-01-09T20:53:07.726Z,1.00
2023-01-09T20:55:34.836Z,0.98
2023-01-09T20:58:01.795Z,0.82
2023-01-09T21:00:31.912Z,0.98
2023-01-09T21:02:59.308Z,0.95
2023-01-09T21:05:26.264Z,1.00
2023-01-09T21:07:53.210Z,1.65
2023-01-09T21:10:19.973Z,1.92
2023-01-09T21:15:17.685Z,1.02
2023-01-09T21:17:44.560Z,1.20
2023-01-09T21:20:15.259Z,0.80
2023-01-09T21:22:42.237Z,1.27
2023-01-09T21:25:10.369Z,1.15
2023-01-09T21:27:43.236Z,1.00
2023-01-09T21:30:11.026Z,1.30
2023-01-09T21:32:38.244Z,1.02
2023-01-09T21:35:06.902Z,1.30
2023-01-09T21:37:35.973Z,1.42
2023-01-09T21:40:05.585Z,1.38
2023-01-09T21:42:50.892Z,0.80
2023-01-09T21:45:36.969Z,1.20
2023-01-09T21:48:07.272Z,1.05
2023-01-09T21:50:35.462Z,0.65
2023-01-09T21:53:02.630Z,1.23
2023-01-09T21:55:32.051Z,1.08
2023-01-09T21:58:01.063Z,0.93
2023-01-09T22:00:28.894Z,1.00
2023-01-09T22:02:55.775Z,0.90
2023-01-09T22:05:24.529Z,0.98
2023-01-09T22:07:51.882Z,1.50
2023-01-09T22:10:19.222Z,1.38
2023-01-09T22:13:09.236Z,0.80
2023-01-09T22:15:36.062Z,0.80
2023-01-09T22:20:29.404Z,0.90
2023-01-09T22:25:22.948Z,0.95
2023-01-09T22:27:49.903Z,0.63
2023-01-09T22:30:16.879Z,0.80
2023-01-09T22:32:43.745Z,0.57
2023-01-09T22:35:10.590Z,0.60
2023-01-09T22:40:04.729Z,0.80
2023-01-09T22:42:31.554Z,0.65
2023-01-09T22:44:58.516Z,0.68
2023-01-09T22:47:25.933Z,0.40
2023-01-09T22:49:53.661Z,1.15
2023-01-09T22:52:21.732Z,0.75
2023-01-09T22:54:48.576Z,0.70
2023-01-09T22:57:15.342Z,0.50
2023-01-09T23:02:09.115Z,0.80
2023-01-09T23:04:35.914Z,0.50
2023-01-09T23:09:29.442Z,0.60
2023-01-09T23:12:02.031Z,2.25
2023-01-09T23:14:30.460Z,0.57
2023-01-09T23:16:57.337Z,0.57
2023-01-09T23:19:24.663Z,0.50
2023-01-09T23:21:51.701Z,0.55
2023-01-09T23:24:18.984Z,0.70
2023-01-09T23:26:46.452Z,0.60
2023-01-09T23:29:14.030Z,0.70
2023-01-09T23:31:40.784Z,0.60
2023-01-09T23:36:35.728Z,0.40
2023-01-09T23:39:04.079Z,0.28
2023-01-09T23:41:49.356Z,0.30
2023-01-09T23:44:16.185Z,0.40
2023-01-09T23:49:10.254Z,0.40
2023-01-09T23:51:37.024Z,0.40
2023-01-09T23:54:04.319Z,0.45
2023-01-09T23:56:33.711Z,0.60
2023-01-09T23:59:02.049Z,0.40
